Time;durP1;ratioP1;P1;durP2;ratioP2;P2;SDS_P1;SDS_P2;PMS_P1;PMS_P2;Temp;Humidity;BMP_temperature;BMP_pressure;BME280_temperature;BME280_humidity;BME280_pressure;Samples;Min_cycle;Max_cycle;Signal;HPM_P1;HPM_P2
2021/10/08 00:00:54;;;;;;;;;;;;;;;;;;5020664;28;20048;-76
2021/10/08 00:03:20;;;;;;;12.82;2.17;;;;;;;;;;5013961;28;20349;-75
2021/10/08 00:05:46;;;;;;;;;;;;;;;;;;5017374;28;20032;-76
2021/10/08 00:08:12;;;;;;;12.80;2.53;;;;;;;;;;5002095;28;20390;-75
2021/10/08 00:10:38;;;;;;;14.05;2.33;;;;;;;;;;5017201;28;20041;-76
2021/10/08 00:13:04;;;;;;;;;;;;;;;;;;5017050;28;20635;-76
2021/10/08 00:15:31;;;;;;;13.68;2.50;;;;;;;;;;5005943;28;19920;-75
2021/10/08 00:17:57;;;;;;;11.15;2.40;;;;;;;;;;5004072;28;21030;-75
2021/10/08 00:20:23;;;;;;;;;;;;;;;;;;5022430;28;20068;-75
2021/10/08 00:22:49;;;;;;;10.68;2.30;;;;;;;;;;5016622;28;20013;-75
2021/10/08 00:25:16;;;;;;;;;;;;;;;;;;5016230;28;20493;-75
2021/10/08 00:27:42;;;;;;;10.65;2.10;;;;;;;;;;5006919;28;19917;-74
2021/10/08 00:30:08;;;;;;;;;;;;;;;;;;4998494;28;20039;-75
2021/10/08 00:32:35;;;;;;;12.38;2.25;;;;;;;;;;5023074;28;19908;-76
2021/10/08 00:35:01;;;;;;;10.65;1.70;;;;;;;;;;5021829;28;20041;-75
2021/10/08 00:37:27;;;;;;;;;;;;;;;;;;5001562;28;20068;-75
2021/10/08 00:39:54;;;;;;;10.70;2.20;;;;;;;;;;5023803;28;20431;-77
2021/10/08 00:42:22;;;;;;;12.80;3.55;;;;;;;;;;5011641;28;20056;-75
2021/10/08 00:44:48;;;;;;;12.43;2.58;;;;;;;;;;5022777;28;20033;-77
2021/10/08 00:47:14;;;;;;;9.00;2.42;;;;;;;;;;5002971;28;20032;-75
2021/10/08 00:49:40;;;;;;;;;;;;;;;;;;5017920;28;20048;-75
2021/10/08 00:52:07;;;;;;;12.60;2.30;;;;;;;;;;5006798;28;20675;-75
2021/10/08 00:54:33;;;;;;;13.05;3.10;;;;;;;;;;5013681;28;20103;-75
2021/10/08 00:57:00;;;;;;;14.38;3.00;;;;;;;;;;5004043;28;20567;-75
2021/10/08 00:59:27;;;;;;;10.82;2.17;;;;;;;;;;5021847;28;20053;-75
2021/10/08 01:01:54;;;;;;;9.57;2.00;;;;;;;;;;4999097;28;20419;-76
2021/10/08 01:04:20;;;;;;;;;;;;;;;;;;5017067;28;20088;-75
2021/10/08 01:06:46;;;;;;;8.20;1.80;;;;;;;;;;5013340;28;20000;-75
2021/10/08 01:09:12;;;;;;;;;;;;;;;;;;5001701;28;20147;-75
2021/10/08 01:11:38;;;;;;;10.60;2.20;;;;;;;;;;5027250;28;19909;-75
2021/10/08 01:14:05;;;;;;;10.20;1.80;;;;;;;;;;4991014;28;20509;-75
2021/10/08 01:16:31;;;;;;;;;;;;;;;;;;4999161;28;20065;-75
2021/10/08 01:18:57;;;;;;;10.45;1.60;;;;;;;;;;4997593;28;20048;-75
2021/10/08 01:21:23;;;;;;;;;;;;;;;;;;4992548;28;20038;-75
2021/10/08 01:23:50;;;;;;;8.52;1.70;;;;;;;;;;4999559;28;19921;-75
2021/10/08 01:26:16;;;;;;;9.52;1.60;;;;;;;;;;4991011;28;20025;-75
2021/10/08 01:28:42;;;;;;;;;;;;;;;;;;4997093;28;20030;-75
2021/10/08 01:31:08;;;;;;;11.40;2.00;;;;;;;;;;4989412;28;20004;-75
2021/10/08 01:33:35;;;;;;;8.57;1.70;;;;;;;;;;4999623;28;20165;-75
2021/10/08 01:36:01;;;;;;;;;;;;;;;;;;4997402;28;20594;-75
2021/10/08 01:38:27;;;;;;;10.23;1.98;;;;;;;;;;4992901;28;20677;-76
2021/10/08 01:40:53;;;;;;;7.05;1.38;;;;;;;;;;4971547;28;20038;-75
2021/10/08 01:43:20;;;;;;;9.38;1.67;;;;;;;;;;4971023;28;20076;-76
2021/10/08 01:45:46;;;;;;;8.52;1.45;;;;;;;;;;4994309;28;20037;-76
2021/10/08 01:48:12;;;;;;;10.18;1.80;;;;;;;;;;4990227;28;20037;-76
2021/10/08 01:50:39;;;;;;;6.80;1.20;;;;;;;;;;4996470;28;20096;-75
2021/10/08 01:53:08;;;;;;;10.00;1.60;;;;;;;;;;4977760;28;20037;-76
2021/10/08 01:55:34;;;;;;;12.13;1.70;;;;;;;;;;4993052;28;20038;-75
2021/10/08 01:58:00;;;;;;;;;;;;;;;;;;4997746;28;20542;-77
2021/10/08 02:00:27;;;;;;;8.18;1.67;;;;;;;;;;4972951;28;19963;-75
2021/10/08 02:02:54;;;;;;;9.20;1.75;;;;;;;;;;4978795;28;20040;-75
2021/10/08 02:05:20;;;;;;;9.35;1.63;;;;;;;;;;4991616;28;20026;-75
2021/10/08 02:07:47;;;;;;;8.48;1.60;;;;;;;;;;4979799;28;20115;-76
2021/10/08 02:10:14;;;;;;;11.10;1.70;;;;;;;;;;4994361;28;20487;-75
2021/10/08 02:12:41;;;;;;;9.90;1.58;;;;;;;;;;4997580;28;20655;-75
2021/10/08 02:15:07;;;;;;;;;;;;;;;;;;4994339;28;20515;-75
2021/10/08 02:17:33;;;;;;;9.48;1.63;;;;;;;;;;5015372;28;19958;-75
2021/10/08 02:19:59;;;;;;;9.70;2.05;;;;;;;;;;4998335;28;20627;-75
2021/10/08 02:22:25;;;;;;;;;;;;;;;;;;4996785;28;20076;-75
2021/10/08 02:24:52;;;;;;;11.85;1.30;;;;;;;;;;5017869;28;22461;-75
2021/10/08 02:27:18;;;;;;;8.52;1.30;;;;;;;;;;4989848;28;20049;-75
2021/10/08 02:29:44;;;;;;;;;;;;;;;;;;4999030;28;20040;-75
2021/10/08 02:32:11;;;;;;;9.13;1.70;;;;;;;;;;4993890;28;19921;-76
2021/10/08 02:34:37;;;;;;;10.27;1.60;;;;;;;;;;4998694;28;20034;-76
2021/10/08 02:37:03;;;;;;;;;;;;;;;;;;4995804;28;20053;-76
2021/10/08 02:39:29;;;;;;;7.80;1.20;;;;;;;;;;4993859;28;19917;-76
2021/10/08 02:41:55;;;;;;;;;;;;;;;;;;4998550;28;20115;-78
2021/10/08 02:44:22;;;;;;;9.85;1.40;;;;;;;;;;5010993;28;19924;-76
2021/10/08 02:46:48;;;;;;;10.55;1.23;;;;;;;;;;5011406;28;20040;-76
2021/10/08 02:49:21;;;;;;;;;;;;;;;;;;5015237;28;20738;-76
2021/10/08 02:51:49;;;;;;;10.75;1.67;;;;;;;;;;5014033;28;19917;-77
2021/10/08 02:54:15;;;;;;;9.77;1.52;;;;;;;;;;4991656;28;20523;-76
2021/10/08 02:56:42;;;;;;;;;;;;;;;;;;5013484;28;20037;-76
2021/10/08 02:59:08;;;;;;;11.35;1.58;;;;;;;;;;5008928;28;20023;-77
2021/10/08 03:01:35;;;;;;;8.68;1.25;;;;;;;;;;5019115;28;20037;-75
2021/10/08 03:04:04;;;;;;;;;;;;;;;;;;5000884;28;20107;-76
2021/10/08 03:06:31;;;;;;;10.45;1.52;;;;;;;;;;5015083;28;19920;-76
2021/10/08 03:08:57;;;;;;;8.40;1.58;;;;;;;;;;5002477;28;20036;-77
2021/10/08 03:11:23;;;;;;;;;;;;;;;;;;5012454;28;20033;-76
2021/10/08 03:13:50;;;;;;;9.88;1.65;;;;;;;;;;5017618;28;19932;-76
2021/10/08 03:16:16;;;;;;;;;;;;;;;;;;5014972;28;20052;-76
2021/10/08 03:18:43;;;;;;;8.45;1.20;;;;;;;;;;5014822;28;20035;-76
2021/10/08 03:21:09;;;;;;;13.02;1.70;;;;;;;;;;5016488;28;20062;-76
2021/10/08 03:23:36;;;;;;;9.63;1.27;;;;;;;;;;5004748;28;20029;-78
2021/10/08 03:26:04;;;;;;;9.23;1.35;;;;;;;;;;4999231;28;20039;-77
2021/10/08 03:28:30;;;;;;;13.15;1.48;;;;;;;;;;5017893;28;20040;-75
2021/10/08 03:30:57;;;;;;;9.43;1.58;;;;;;;;;;5017774;28;20033;-75
2021/10/08 03:33:23;;;;;;;10.40;1.80;;;;;;;;;;4999951;28;20647;-75
2021/10/08 03:35:49;;;;;;;7.90;1.23;;;;;;;;;;5019372;28;20378;-75
2021/10/08 03:38:18;;;;;;;12.65;1.70;;;;;;;;;;5011762;28;20023;-76
2021/10/08 03:40:52;;;;;;;12.93;2.03;;;;;;;;;;5017135;28;20800;-76
2021/10/08 03:43:18;;;;;;;12.40;1.77;;;;;;;;;;5014748;28;20088;-76
2021/10/08 03:45:48;;;;;;;8.73;1.98;;;;;;;;;;5001705;28;20033;-75
2021/10/08 03:50:45;;;;;;;12.13;1.58;;;;;;;;;;5021140;28;20029;-78
2021/10/08 03:53:11;;;;;;;10.07;1.75;;;;;;;;;;4997386;28;20025;-77
2021/10/08 03:55:38;;;;;;;10.73;1.55;;;;;;;;;;5000131;28;20033;-77
2021/10/08 03:58:04;;;;;;;11.55;1.60;;;;;;;;;;4999464;28;20164;-74
2021/10/08 04:00:31;;;;;;;10.40;1.83;;;;;;;;;;5013604;28;20045;-75
2021/10/08 04:02:58;;;;;;;11.05;1.80;;;;;;;;;;5004127;28;20045;-75
2021/10/08 04:05:25;;;;;;;11.25;2.20;;;;;;;;;;5015345;28;21015;-75
2021/10/08 04:07:51;;;;;;;11.05;1.60;;;;;;;;;;5022501;28;20057;-75
2021/10/08 04:10:17;;;;;;;11.27;1.77;;;;;;;;;;5000491;28;20037;-77
2021/10/08 04:12:43;;;;;;;13.35;2.10;;;;;;;;;;5000628;28;20045;-75
2021/10/08 04:15:10;;;;;;;11.90;1.88;;;;;;;;;;5015240;28;20052;-77
2021/10/08 04:17:36;;;;;;;10.15;2.10;;;;;;;;;;5004637;28;20032;-75
2021/10/08 04:20:03;;;;;;;11.35;2.20;;;;;;;;;;5018247;28;20530;-75
2021/10/08 04:22:29;;;;;;;15.68;1.95;;;;;;;;;;5000865;28;20523;-75
2021/10/08 04:24:55;;;;;;;9.82;1.75;;;;;;;;;;5017180;28;20041;-75
2021/10/08 04:27:21;;;;;;;14.02;1.67;;;;;;;;;;4999621;28;20029;-75
2021/10/08 04:29:48;;;;;;;14.30;2.13;;;;;;;;;;5023130;28;20067;-76
2021/10/08 04:32:14;;;;;;;11.88;2.42;;;;;;;;;;5015106;28;20029;-76
2021/10/08 04:34:40;;;;;;;12.23;1.88;;;;;;;;;;5020805;28;20145;-75
2021/10/08 04:37:07;;;;;;;13.18;1.80;;;;;;;;;;5011186;28;20033;-74
2021/10/08 04:39:33;;;;;;;11.63;2.50;;;;;;;;;;5016349;28;20126;-77
2021/10/08 04:42:00;;;;;;;11.88;2.10;;;;;;;;;;5024963;28;20226;-77
2021/10/08 04:44:26;;;;;;;12.48;1.70;;;;;;;;;;4996850;28;20037;-77
2021/10/08 04:46:53;;;;;;;16.50;2.80;;;;;;;;;;5016166;28;20493;-77
2021/10/08 04:49:19;;;;;;;10.27;1.73;;;;;;;;;;4997200;28;20064;-77
2021/10/08 04:51:45;;;;;;;11.55;2.08;;;;;;;;;;5018974;28;20782;-77
2021/10/08 04:54:11;;;;;;;9.30;1.42;;;;;;;;;;5014518;28;20040;-77
2021/10/08 04:56:38;;;;;;;11.85;1.98;;;;;;;;;;5016576;28;20107;-75
2021/10/08 04:59:05;;;;;;;14.25;1.95;;;;;;;;;;5010889;28;20523;-75
2021/10/08 05:01:31;;;;;;;11.82;1.80;;;;;;;;;;5019158;28;21023;-75
2021/10/08 05:03:58;;;;;;;11.25;2.05;;;;;;;;;;4998638;28;20562;-75
2021/10/08 05:06:24;;;;;;;14.57;1.88;;;;;;;;;;4998655;28;20064;-75
2021/10/08 05:08:50;;;;;;;10.90;1.80;;;;;;;;;;5014391;28;20079;-75
2021/10/08 05:11:16;;;;;;;11.15;1.85;;;;;;;;;;5009710;28;20121;-75
2021/10/08 05:13:43;;;;;;;10.43;1.67;;;;;;;;;;5015723;28;20053;-75
2021/10/08 05:16:09;;;;;;;;;;;;;;;;;;5010983;28;20037;-75
2021/10/08 05:18:35;;;;;;;11.38;1.83;;;;;;;;;;5015032;28;19976;-75
2021/10/08 05:21:02;;;;;;;13.30;1.70;;;;;;;;;;5017750;28;20158;-76
2021/10/08 05:23:29;;;;;;;9.82;1.50;;;;;;;;;;5012893;28;20543;-76
2021/10/08 05:25:55;;;;;;;12.30;1.60;;;;;;;;;;5019034;28;20083;-76
2021/10/08 05:28:22;;;;;;;11.63;1.85;;;;;;;;;;5011802;28;20666;-76
2021/10/08 05:30:48;;;;;;;11.80;1.75;;;;;;;;;;5014348;28;20033;-75
2021/10/08 05:33:14;;;;;;;;;;;;;;;;;;5012977;28;20140;-75
2021/10/08 05:35:41;;;;;;;7.25;1.45;;;;;;;;;;5016058;28;20541;-75
2021/10/08 05:38:08;;;;;;;11.27;1.70;;;;;;;;;;5012969;28;20040;-75
2021/10/08 05:40:34;;;;;;;10.48;1.90;;;;;;;;;;5015854;28;20080;-75
2021/10/08 05:43:00;;;;;;;;;;;;;;;;;;4997585;28;20718;-75
2021/10/08 05:45:26;;;;;;;15.43;2.20;;;;;;;;;;5008974;28;19920;-76
2021/10/08 05:47:52;;;;;;;8.63;1.70;;;;;;;;;;4999575;28;20082;-75
2021/10/08 05:50:19;;;;;;;11.55;2.10;;;;;;;;;;5008766;28;20031;-75
2021/10/08 05:52:46;;;;;;;13.38;2.30;;;;;;;;;;4999509;28;21587;-77
2021/10/08 05:55:12;;;;;;;10.95;1.88;;;;;;;;;;4995373;28;20073;-77
2021/10/08 05:57:38;;;;;;;11.00;1.73;;;;;;;;;;5011383;28;20041;-77
2021/10/08 06:00:06;;;;;;;9.52;1.90;;;;;;;;;;5007829;28;20061;-76
2021/10/08 06:02:32;;;;;;;8.88;2.13;;;;;;;;;;5016924;28;20030;-77
2021/10/08 06:04:58;;;;;;;9.75;1.90;;;;;;;;;;5012913;28;20091;-76
2021/10/08 06:07:24;;;;;;;;;;;;;;;;;;5011833;28;20033;-76
2021/10/08 06:09:50;;;;;;;12.77;1.67;;;;;;;;;;4999237;28;19925;-76
2021/10/08 06:12:16;;;;;;;9.73;1.88;;;;;;;;;;4998131;28;20123;-76
2021/10/08 06:14:43;;;;;;;8.73;1.52;;;;;;;;;;5002726;28;20053;-75
2021/10/08 06:17:09;;;;;;;9.85;1.50;;;;;;;;;;4988431;28;20037;-75
2021/10/08 06:19:35;;;;;;;12.75;1.67;;;;;;;;;;5001578;28;20068;-75
2021/10/08 06:22:02;;;;;;;11.73;2.00;;;;;;;;;;4995882;28;20099;-76
2021/10/08 06:24:29;;;;;;;12.35;1.73;;;;;;;;;;4993468;28;20049;-76
2021/10/08 06:26:56;;;;;;;10.18;1.92;;;;;;;;;;4985528;28;20028;-76
2021/10/08 06:29:22;;;;;;;10.50;2.03;;;;;;;;;;4976304;28;21104;-75
2021/10/08 06:31:48;;;;;;;9.13;1.58;;;;;;;;;;4994735;28;20576;-76
2021/10/08 06:34:14;;;;;;;10.95;1.73;;;;;;;;;;4992712;28;20053;-75
2021/10/08 06:36:41;;;;;;;12.85;2.10;;;;;;;;;;4979361;28;20048;-75
2021/10/08 06:39:07;;;;;;;8.38;1.30;;;;;;;;;;4978560;28;20575;-76
2021/10/08 06:41:34;;;;;;;12.18;1.75;;;;;;;;;;4995256;28;20029;-76
2021/10/08 06:44:01;;;;;;;10.27;1.40;;;;;;;;;;4996149;28;20041;-75
2021/10/08 06:46:28;;;;;;;10.35;1.40;;;;;;;;;;4994571;28;20037;-76
2021/10/08 06:48:55;;;;;;;8.98;1.40;;;;;;;;;;4994487;28;20048;-76
2021/10/08 06:51:21;;;;;;;6.43;1.42;;;;;;;;;;4994394;28;20053;-76
2021/10/08 06:53:48;;;;;;;11.00;1.55;;;;;;;;;;4979881;28;20121;-76
2021/10/08 06:56:14;;;;;;;;;;;;;;;;;;4972272;28;20591;-76
2021/10/08 06:58:40;;;;;;;8.65;1.80;;;;;;;;;;4983431;28;20459;-76
2021/10/08 07:01:06;;;;;;;7.53;1.38;;;;;;;;;;4979948;28;20104;-77
2021/10/08 07:03:33;;;;;;;8.13;1.60;;;;;;;;;;4983058;28;20046;-77
2021/10/08 07:05:59;;;;;;;;;;;;;;;;;;4994580;28;20136;-75
2021/10/08 07:08:25;;;;;;;8.02;1.80;;;;;;;;;;4974053;28;19963;-77
2021/10/08 07:10:51;;;;;;;8.85;1.70;;;;;;;;;;4997519;28;20590;-77
2021/10/08 07:13:17;;;;;;;12.05;2.00;;;;;;;;;;4976272;28;20037;-77
2021/10/08 07:15:44;;;;;;;10.32;1.98;;;;;;;;;;5010792;28;20096;-78
2021/10/08 07:18:14;;;;;;;8.25;1.67;;;;;;;;;;5011282;28;20060;-78
2021/10/08 07:20:41;;;;;;;10.80;1.60;;;;;;;;;;5020265;28;20029;-77
2021/10/08 07:23:07;;;;;;;8.45;1.73;;;;;;;;;;4995602;28;20767;-76
2021/10/08 07:25:33;;;;;;;8.15;1.45;;;;;;;;;;5017738;28;20029;-75
2021/10/08 07:27:59;;;;;;;;;;;;;;;;;;5021425;28;20028;-75
2021/10/08 07:30:26;;;;;;;8.50;1.30;;;;;;;;;;5010899;28;19921;-77
2021/10/08 07:32:53;;;;;;;;;;;;;;;;;;5017699;28;20384;-77
2021/10/08 07:35:19;;;;;;;9.35;1.70;;;;;;;;;;5011438;28;19973;-77
2021/10/08 07:37:45;;;;;;;;;;;;;;;;;;4998958;28;20036;-77
2021/10/08 07:40:13;;;;;;;10.38;1.83;;;;;;;;;;5013047;28;20588;-77
2021/10/08 07:42:39;;;;;;;8.35;1.52;;;;;;;;;;5017291;28;20048;-77
2021/10/08 07:45:05;;;;;;;;;;;;;;;;;;5014363;28;20704;-78
2021/10/08 07:47:31;;;;;;;9.20;1.60;;;;;;;;;;5017190;28;19916;-77
2021/10/08 07:49:58;;;;;;;8.88;1.13;;;;;;;;;;5004802;28;20033;-77
2021/10/08 07:52:24;;;;;;;12.05;1.50;;;;;;;;;;5017804;28;20228;-77
2021/10/08 07:54:51;;;;;;;8.30;1.50;;;;;;;;;;5015720;28;20032;-76
2021/10/08 07:57:17;;;;;;;9.63;1.40;;;;;;;;;;5014829;28;20128;-77
2021/10/08 07:59:43;;;;;;;7.57;1.25;;;;;;;;;;5004249;28;20032;-75
2021/10/08 08:02:09;;;;;;;;;;;;;;;;;;5010695;28;20040;-76
2021/10/08 08:04:37;;;;;;;5.78;1.20;;;;;;;;;;5014263;28;19921;-76
2021/10/08 08:07:07;;;;;;;9.65;1.70;;;;;;;;;;5013071;28;20397;-75
2021/10/08 08:09:33;;;;;;;7.32;1.38;;;;;;;;;;5016243;28;20132;-77
2021/10/08 08:12:01;;;;;;;10.98;1.48;;;;;;;;;;5023552;28;20040;-76
2021/10/08 08:14:28;;;;;;;6.80;1.50;;;;;;;;;;5012656;28;20175;-76
2021/10/08 08:16:55;;;;;;;10.52;2.10;;;;;;;;;;5017891;28;20111;-76
2021/10/08 08:19:21;;;;;;;11.38;2.45;;;;;;;;;;4999182;28;20119;-76
2021/10/08 08:21:47;;;;;;;12.68;2.67;;;;;;;;;;5014825;28;20052;-76
2021/10/08 08:24:13;;;;;;;9.65;2.10;;;;;;;;;;5015873;28;20052;-76
2021/10/08 08:26:40;;;;;;;10.13;1.90;;;;;;;;;;5003023;28;20040;-76
2021/10/08 08:29:06;;;;;;;7.18;1.50;;;;;;;;;;5012609;28;20154;-76
2021/10/08 08:31:33;;;;;;;8.90;1.67;;;;;;;;;;5005274;28;20185;-76
2021/10/08 08:33:59;;;;;;;11.15;1.65;;;;;;;;;;5012248;28;20041;-76
2021/10/08 08:36:26;;;;;;;8.85;1.50;;;;;;;;;;5015867;28;20042;-76
2021/10/08 08:38:52;;;;;;;9.68;1.30;;;;;;;;;;5014300;28;20092;-76
2021/10/08 08:41:18;;;;;;;8.15;1.30;;;;;;;;;;5011555;28;20906;-76
2021/10/08 08:43:46;;;;;;;9.93;2.05;;;;;;;;;;5019706;28;20092;-76
2021/10/08 08:46:12;;;;;;;10.02;1.38;;;;;;;;;;5009108;28;20039;-76
2021/10/08 08:48:40;;;;;;;7.95;1.65;;;;;;;;;;5005151;28;20065;-76
2021/10/08 08:51:07;;;;;;;8.15;1.58;;;;;;;;;;5013060;28;20037;-77
2021/10/08 08:53:33;;;;;;;12.43;1.98;;;;;;;;;;5016742;28;20069;-78
2021/10/08 08:55:59;;;;;;;9.75;1.73;;;;;;;;;;5001434;28;20551;-77
2021/10/08 08:58:25;;;;;;;7.97;1.70;;;;;;;;;;5011654;28;20041;-78
2021/10/08 09:00:59;;;;;;;8.52;1.90;;;;;;;;;;5014424;28;20041;-77
2021/10/08 09:03:26;;;;;;;10.65;1.83;;;;;;;;;;4996344;28;20151;-77
2021/10/08 09:05:52;;;;;;;9.88;1.50;;;;;;;;;;5000810;28;20056;-76
2021/10/08 09:08:19;;;;;;;8.45;1.50;;;;;;;;;;5013357;28;20037;-76
2021/10/08 09:10:49;;;;;;;10.63;1.80;;;;;;;;;;5016051;28;20574;-76
2021/10/08 09:13:16;;;;;;;10.48;1.40;;;;;;;;;;5009495;28;20029;-76
2021/10/08 09:15:56;;;;;;;8.68;1.60;;;;;;;;;;5018431;28;20065;-76
2021/10/08 09:18:27;;;;;;;9.05;1.30;;;;;;;;;;5013818;28;20033;-76
2021/10/08 09:21:06;;;;;;;6.65;1.40;;;;;;;;;;5013065;28;20583;-77
2021/10/08 09:23:35;;;;;;;9.68;1.55;;;;;;;;;;5018255;28;20060;-77
2021/10/08 09:26:02;;;;;;;10.98;1.67;;;;;;;;;;5015961;28;20060;-77
2021/10/08 09:28:28;;;;;;;10.38;1.92;;;;;;;;;;4997057;28;20075;-77
2021/10/08 09:30:56;;;;;;;8.40;1.67;;;;;;;;;;5017180;28;20048;-76
2021/10/08 09:33:23;;;;;;;11.23;1.52;;;;;;;;;;5014435;28;20993;-76
2021/10/08 09:35:53;;;;;;;9.40;1.48;;;;;;;;;;5016691;28;20055;-77
2021/10/08 09:38:19;;;;;;;10.55;1.52;;;;;;;;;;5012653;28;20055;-77
2021/10/08 09:41:00;;;;;;;8.50;1.52;;;;;;;;;;5021599;28;20033;-76
2021/10/08 09:43:28;;;;;;;7.32;1.50;;;;;;;;;;5010104;28;20479;-77
2021/10/08 09:45:54;;;;;;;7.72;1.52;;;;;;;;;;5005800;28;20033;-76
2021/10/08 09:48:28;;;;;;;11.38;1.75;;;;;;;;;;5013029;28;20029;-77
2021/10/08 09:51:00;;;;;;;7.82;1.50;;;;;;;;;;5016233;28;20681;-76
2021/10/08 09:53:26;;;;;;;8.15;1.40;;;;;;;;;;5016366;28;20032;-77
2021/10/08 09:55:53;;;;;;;6.78;1.10;;;;;;;;;;5000470;28;20087;-76
2021/10/08 09:58:21;;;;;;;9.70;2.03;;;;;;;;;;5012963;28;20068;-78
2021/10/08 10:01:01;;;;;;;11.10;1.70;;;;;;;;;;5018962;28;20045;-78
2021/10/08 10:03:28;;;;;;;8.02;1.40;;;;;;;;;;4978618;28;20339;-77
2021/10/08 10:05:54;;;;;;;9.43;1.52;;;;;;;;;;5013628;28;20025;-77
2021/10/08 10:08:21;;;;;;;9.48;1.67;;;;;;;;;;5002707;28;20025;-76
2021/10/08 10:10:48;;;;;;;10.20;1.63;;;;;;;;;;5013653;28;20029;-76
2021/10/08 10:13:14;;;;;;;6.05;1.08;;;;;;;;;;5017177;28;20029;-78
2021/10/08 10:15:43;;;;;;;7.47;1.40;;;;;;;;;;5014376;28;20042;-76
2021/10/08 10:18:14;;;;;;;9.02;1.30;;;;;;;;;;4987349;28;20049;-78
2021/10/08 10:20:45;;;;;;;10.88;1.88;;;;;;;;;;5003094;28;20043;-75
2021/10/08 10:23:11;;;;;;;9.88;1.70;;;;;;;;;;5009779;28;20126;-78
2021/10/08 10:25:37;;;;;;;8.50;1.65;;;;;;;;;;5023461;28;20032;-76
2021/10/08 10:28:05;;;;;;;8.70;1.80;;;;;;;;;;5014805;28;20036;-78
2021/10/08 10:30:32;;;;;;;9.50;1.45;;;;;;;;;;5015185;28;20032;-76
2021/10/08 10:32:58;;;;;;;6.40;1.20;;;;;;;;;;5025066;28;20039;-77
2021/10/08 10:35:41;;;;;;;7.43;1.40;;;;;;;;;;5000974;28;20033;-76
2021/10/08 10:38:24;;;;;;;9.20;1.60;;;;;;;;;;5001656;28;20037;-76
2021/10/08 10:41:17;;;;;;;10.27;1.30;;;;;;;;;;5024564;28;20025;-76
2021/10/08 10:43:45;;;;;;;7.38;1.20;;;;;;;;;;4999967;28;20035;-77
2021/10/08 10:52:01;;;;;;;6.50;1.13;;;;;;;;;;5021771;28;20061;-78
2021/10/08 10:54:41;;;;;;;6.97;1.23;;;;;;;;;;4998998;28;20047;-79
2021/10/08 10:57:17;;;;;;;7.57;1.13;;;;;;;;;;4997921;28;20171;-78
2021/10/08 10:59:43;;;;;;;6.43;1.00;;;;;;;;;;5023455;28;20040;-76
2021/10/08 11:02:17;;;;;;;8.95;1.40;;;;;;;;;;5018874;28;20033;-77
2021/10/08 11:05:03;;;;;;;8.85;1.70;;;;;;;;;;5023873;28;20041;-77
2021/10/08 11:07:30;;;;;;;6.90;1.70;;;;;;;;;;5012890;28;20052;-78
2021/10/08 11:10:00;;;;;;;7.65;1.40;;;;;;;;;;5018323;28;20060;-76
2021/10/08 11:12:39;;;;;;;6.97;1.40;;;;;;;;;;4998932;28;20095;-77
2021/10/08 11:15:19;;;;;;;8.73;1.23;;;;;;;;;;4997313;28;20052;-77
2021/10/08 11:17:53;;;;;;;9.40;1.30;;;;;;;;;;5016657;28;20143;-77
2021/10/08 11:20:31;;;;;;;8.35;1.30;;;;;;;;;;4998834;28;20036;-76
2021/10/08 11:23:06;;;;;;;9.18;1.38;;;;;;;;;;4998321;28;20513;-76
2021/10/08 11:25:50;;;;;;;7.93;1.27;;;;;;;;;;5016549;28;20496;-78
2021/10/08 11:28:18;;;;;;;8.45;1.40;;;;;;;;;;4980314;28;20028;-76
2021/10/08 11:30:49;;;;;;;9.57;1.25;;;;;;;;;;5002039;28;20069;-77
2021/10/08 11:33:16;;;;;;;8.90;1.20;;;;;;;;;;4996428;28;20045;-76
2021/10/08 11:35:42;;;;;;;7.45;1.30;;;;;;;;;;5017424;28;20502;-77
2021/10/08 11:38:08;;;;;;;9.07;1.48;;;;;;;;;;5011555;28;20036;-77
2021/10/08 11:40:43;;;;;;;8.00;1.27;;;;;;;;;;5016529;28;20037;-78
2021/10/08 11:43:33;;;;;;;11.40;1.88;;;;;;;;;;5010738;28;20227;-77
2021/10/08 11:46:09;;;;;;;9.65;1.70;;;;;;;;;;4989766;28;21019;-77
2021/10/08 11:48:40;;;;;;;5.88;1.17;;;;;;;;;;5017815;28;20037;-77
2021/10/08 11:51:06;;;;;;;9.32;1.60;;;;;;;;;;4993988;28;20048;-77
2021/10/08 11:53:44;;;;;;;7.53;1.45;;;;;;;;;;5014134;28;20096;-76
2021/10/08 11:56:24;;;;;;;7.38;1.30;;;;;;;;;;5014850;28;20107;-76
2021/10/08 11:59:08;;;;;;;8.82;1.30;;;;;;;;;;5014527;28;20041;-76
2021/10/08 12:01:35;;;;;;;10.30;1.90;;;;;;;;;;5012979;28;20049;-77
2021/10/08 12:04:01;;;;;;;8.68;1.60;;;;;;;;;;5014798;28;20040;-76
2021/10/08 12:06:28;;;;;;;10.30;1.50;;;;;;;;;;5006998;28;20763;-76
2021/10/08 12:08:57;;;;;;;9.65;1.48;;;;;;;;;;5000493;28;20036;-77
2021/10/08 12:11:28;;;;;;;8.40;1.40;;;;;;;;;;5013872;28;20351;-76
2021/10/08 12:13:58;;;;;;;6.55;1.77;;;;;;;;;;5008762;28;20164;-76
2021/10/08 12:16:26;;;;;;;7.35;1.80;;;;;;;;;;4992510;28;20141;-77
2021/10/08 12:18:55;;;;;;;7.57;1.60;;;;;;;;;;4982469;28;20114;-77
2021/10/08 12:21:25;;;;;;;14.10;2.60;;;;;;;;;;4988532;28;20500;-76
2021/10/08 12:23:57;;;;;;;13.43;1.92;;;;;;;;;;4984338;28;20123;-77
2021/10/08 12:26:23;;;;;;;8.55;1.30;;;;;;;;;;4993434;28;20034;-78
2021/10/08 12:28:51;;;;;;;8.85;1.52;;;;;;;;;;4980292;28;20033;-78
2021/10/08 12:31:18;;;;;;;12.65;1.88;;;;;;;;;;4993732;28;20043;-77
2021/10/08 12:33:45;;;;;;;11.15;1.98;;;;;;;;;;4983187;28;20214;-76
2021/10/08 12:36:22;;;;;;;12.57;2.20;;;;;;;;;;4991151;28;20030;-77
2021/10/08 12:39:07;;;;;;;10.57;1.70;;;;;;;;;;4995444;28;20119;-77
2021/10/08 12:41:39;;;;;;;11.70;1.95;;;;;;;;;;4993770;28;20111;-77
2021/10/08 12:44:11;;;;;;;10.05;1.75;;;;;;;;;;4971107;28;20049;-77
2021/10/08 12:46:37;;;;;;;5.78;1.30;;;;;;;;;;4994392;28;20038;-77
2021/10/08 12:49:08;;;;;;;8.95;1.33;;;;;;;;;;4993326;28;20030;-77
2021/10/08 12:51:49;;;;;;;8.73;1.80;;;;;;;;;;4997173;28;20071;-78
2021/10/08 12:54:16;;;;;;;10.02;1.60;;;;;;;;;;4989542;28;20060;-77
2021/10/08 12:56:43;;;;;;;9.90;1.60;;;;;;;;;;4994415;28;20064;-75
2021/10/08 12:59:09;;;;;;;7.72;1.40;;;;;;;;;;4971296;28;20038;-77
2021/10/08 13:01:35;;;;;;;8.43;1.30;;;;;;;;;;4982710;28;20037;-77
2021/10/08 13:04:18;;;;;;;9.68;1.38;;;;;;;;;;4992946;28;20053;-76
2021/10/08 13:06:44;;;;;;;8.10;1.30;;;;;;;;;;4994524;28;20040;-75
2021/10/08 13:09:16;;;;;;;6.60;1.25;;;;;;;;;;4976134;28;20152;-75
2021/10/08 13:11:47;;;;;;;8.63;1.27;;;;;;;;;;4979982;28;20033;-78
2021/10/08 13:14:40;;;;;;;8.10;1.35;;;;;;;;;;4986144;28;20037;-78
2021/10/08 13:17:17;;;;;;;8.48;1.27;;;;;;;;;;5007808;28;20041;-77
2021/10/08 13:19:43;;;;;;;7.85;1.10;;;;;;;;;;5011142;28;20049;-76
2021/10/08 13:22:09;;;;;;;7.40;1.30;;;;;;;;;;4994200;28;20033;-78
2021/10/08 13:24:35;;;;;;;9.27;1.38;;;;;;;;;;5013132;28;20071;-76
2021/10/08 13:27:03;;;;;;;8.27;1.15;;;;;;;;;;5017493;28;20140;-77
2021/10/08 13:29:31;;;;;;;5.88;1.08;;;;;;;;;;5011019;28;20415;-77
2021/10/08 13:31:57;;;;;;;5.78;1.10;;;;;;;;;;5014107;28;20628;-77
2021/10/08 13:34:26;;;;;;;6.10;1.23;;;;;;;;;;4999244;28;21588;-76
2021/10/08 13:36:52;;;;;;;11.30;1.60;;;;;;;;;;5019789;28;20069;-77
2021/10/08 13:39:19;;;;;;;13.93;1.60;;;;;;;;;;5009022;28;20041;-77
2021/10/08 13:41:45;;;;;;;13.80;1.70;;;;;;;;;;5012891;28;20037;-75
2021/10/08 13:44:12;;;;;;;5.15;1.08;;;;;;;;;;4990592;28;20459;-78
2021/10/08 13:46:40;;;;;;;7.75;1.20;;;;;;;;;;5013020;28;20026;-76
2021/10/08 13:49:06;;;;;;;7.45;1.00;;;;;;;;;;5015104;28;20064;-77
2021/10/08 13:51:33;;;;;;;8.70;1.27;;;;;;;;;;5014308;28;20028;-77
2021/10/08 13:54:02;;;;;;;8.80;1.42;;;;;;;;;;5015891;28;20044;-77
2021/10/08 13:56:28;;;;;;;6.68;1.23;;;;;;;;;;4998689;28;20035;-77
2021/10/08 13:58:54;;;;;;;5.50;1.00;;;;;;;;;;5012067;28;20075;-77
2021/10/08 14:01:21;;;;;;;7.60;1.20;;;;;;;;;;5017559;28;20033;-76
2021/10/08 14:03:54;;;;;;;9.02;1.30;;;;;;;;;;5012609;28;20122;-77
2021/10/08 14:06:51;;;;;;;10.15;1.65;;;;;;;;;;5009318;28;20067;-76
2021/10/08 14:12:05;;;;;;;7.80;1.23;;;;;;;;;;4932640;28;20456;-77
2021/10/08 14:14:35;;;;;;;9.27;1.20;;;;;;;;;;4921892;28;20050;-76
2021/10/08 14:17:01;;;;;;;6.47;1.20;;;;;;;;;;4920782;28;20035;-76
2021/10/08 14:19:27;;;;;;;8.82;1.27;;;;;;;;;;4914549;28;20085;-77
2021/10/08 14:21:54;;;;;;;7.53;1.10;;;;;;;;;;4933394;28;20039;-77
2021/10/08 14:24:20;;;;;;;6.50;1.50;;;;;;;;;;4928875;28;20206;-77
2021/10/08 14:26:46;;;;;;;7.95;1.20;;;;;;;;;;4917389;28;20037;-78
2021/10/08 14:29:13;;;;;;;5.78;1.20;;;;;;;;;;4915030;28;20034;-77
2021/10/08 14:31:39;;;;;;;5.13;1.10;;;;;;;;;;4922265;28;20046;-77
2021/10/08 14:34:06;;;;;;;5.85;1.15;;;;;;;;;;4914115;28;20043;-77
2021/10/08 14:36:32;;;;;;;6.70;1.33;;;;;;;;;;4939746;28;20101;-77
2021/10/08 14:38:59;;;;;;;6.57;1.17;;;;;;;;;;4924793;28;20033;-77
2021/10/08 14:41:25;;;;;;;7.75;1.10;;;;;;;;;;4930326;28;21019;-77
2021/10/08 14:43:51;;;;;;;6.85;1.10;;;;;;;;;;4938483;28;20034;-77
2021/10/08 14:46:17;;;;;;;6.43;1.10;;;;;;;;;;4932566;28;20062;-77
2021/10/08 14:48:44;;;;;;;5.57;0.90;;;;;;;;;;4960930;28;20163;-76
2021/10/08 14:51:11;;;;;;;7.95;1.10;;;;;;;;;;5010972;28;20099;-78
2021/10/08 14:53:40;;;;;;;5.18;1.00;;;;;;;;;;5014507;28;20037;-76
2021/10/08 14:58:52;;;;;;;6.88;1.30;;;;;;;;;;5018309;28;20064;-75
2021/10/08 15:01:22;;;;;;;5.47;0.90;;;;;;;;;;4990308;28;20041;-76
2021/10/08 15:03:49;;;;;;;3.97;0.90;;;;;;;;;;5015725;28;21030;-77
2021/10/08 15:06:15;;;;;;;4.45;1.10;;;;;;;;;;5008191;28;20049;-76